sensor_id;sensor_type;location;lat;lon;timestamp;P1;durP1;ratioP1;P2;durP2;ratioP2
7519;SDS011;3801;48.876;10.184;2023-07-29T00:04:50;3.87;;;1.50;;
7519;SDS011;3801;48.876;10.184;2023-07-29T00:09:54;1.63;;;1.53;;
7519;SDS011;3801;48.876;10.184;2023-07-29T00:14:58;2.00;;;1.70;;
7519;SDS011;3801;48.876;10.184;2023-07-29T00:20:02;1.20;;;1.10;;
7519;SDS011;3801;48.876;10.184;2023-07-29T00:25:11;1.30;;;1.10;;
7519;SDS011;3801;48.876;10.184;2023-07-29T00:30:14;1.23;;;1.13;;
7519;SDS011;3801;48.876;10.184;2023-07-29T00:35:18;2.00;;;1.30;;
7519;SDS011;3801;48.876;10.184;2023-07-29T00:40:23;1.70;;;1.30;;
7519;SDS011;3801;48.876;10.184;2023-07-29T00:45:27;1.90;;;1.20;;
7519;SDS011;3801;48.876;10.184;2023-07-29T00:50:32;2.30;;;1.43;;
7519;SDS011;3801;48.876;10.184;2023-07-29T00:55:37;1.30;;;1.20;;
7519;SDS011;3801;48.876;10.184;2023-07-29T01:00:40;1.53;;;1.30;;
7519;SDS011;3801;48.876;10.184;2023-07-29T01:05:47;1.40;;;1.30;;
7519;SDS011;3801;48.876;10.184;2023-07-29T01:10:57;1.60;;;1.50;;
7519;SDS011;3801;48.876;10.184;2023-07-29T01:16:02;1.40;;;1.30;;
7519;SDS011;3801;48.876;10.184;2023-07-29T01:21:08;1.80;;;1.20;;
7519;SDS011;3801;48.876;10.184;2023-07-29T01:26:13;1.53;;;1.40;;
7519;SDS011;3801;48.876;10.184;2023-07-29T01:31:19;2.60;;;1.33;;
7519;SDS011;3801;48.876;10.184;2023-07-29T01:36:26;1.27;;;1.17;;
7519;SDS011;3801;48.876;10.184;2023-07-29T01:41:32;1.67;;;1.00;;
7519;SDS011;3801;48.876;10.184;2023-07-29T01:46:37;2.83;;;1.03;;
7519;SDS011;3801;48.876;10.184;2023-07-29T01:51:41;1.93;;;1.40;;
7519;SDS011;3801;48.876;10.184;2023-07-29T01:56:47;1.33;;;1.23;;
7519;SDS011;3801;48.876;10.184;2023-07-29T02:01:51;1.30;;;1.20;;
7519;SDS011;3801;48.876;10.184;2023-07-29T02:06:55;1.23;;;1.10;;
7519;SDS011;3801;48.876;10.184;2023-07-29T02:12:00;1.40;;;1.20;;
7519;SDS011;3801;48.876;10.184;2023-07-29T02:17:11;2.83;;;1.40;;
7519;SDS011;3801;48.876;10.184;2023-07-29T02:22:16;2.20;;;1.50;;
7519;SDS011;3801;48.876;10.184;2023-07-29T02:27:20;1.43;;;1.33;;
7519;SDS011;3801;48.876;10.184;2023-07-29T02:32:24;1.97;;;1.33;;
7519;SDS011;3801;48.876;10.184;2023-07-29T02:37:28;3.43;;;1.60;;
7519;SDS011;3801;48.876;10.184;2023-07-29T02:42:33;1.50;;;1.40;;
7519;SDS011;3801;48.876;10.184;2023-07-29T02:47:36;1.40;;;1.30;;
7519;SDS011;3801;48.876;10.184;2023-07-29T02:52:40;1.67;;;1.50;;
7519;SDS011;3801;48.876;10.184;2023-07-29T02:57:45;1.50;;;1.40;;
7519;SDS011;3801;48.876;10.184;2023-07-29T03:02:49;4.67;;;1.80;;
7519;SDS011;3801;48.876;10.184;2023-07-29T03:07:52;1.57;;;1.43;;
7519;SDS011;3801;48.876;10.184;2023-07-29T03:12:58;2.53;;;1.60;;
7519;SDS011;3801;48.876;10.184;2023-07-29T03:18:01;1.57;;;1.47;;
7519;SDS011;3801;48.876;10.184;2023-07-29T03:23:05;1.90;;;1.70;;
7519;SDS011;3801;48.876;10.184;2023-07-29T03:28:10;3.83;;;2.03;;
7519;SDS011;3801;48.876;10.184;2023-07-29T03:33:13;1.70;;;1.60;;
7519;SDS011;3801;48.876;10.184;2023-07-29T03:38:17;2.30;;;1.60;;
7519;SDS011;3801;48.876;10.184;2023-07-29T03:43:22;4.83;;;1.50;;
7519;SDS011;3801;48.876;10.184;2023-07-29T03:48:27;3.20;;;1.60;;
7519;SDS011;3801;48.876;10.184;2023-07-29T03:53:31;2.60;;;2.00;;
7519;SDS011;3801;48.876;10.184;2023-07-29T03:58:36;2.57;;;1.87;;
7519;SDS011;3801;48.876;10.184;2023-07-29T04:03:39;2.53;;;1.70;;
7519;SDS011;3801;48.876;10.184;2023-07-29T04:08:43;3.20;;;1.90;;
7519;SDS011;3801;48.876;10.184;2023-07-29T04:13:48;1.57;;;1.47;;
7519;SDS011;3801;48.876;10.184;2023-07-29T04:18:52;4.53;;;1.90;;
7519;SDS011;3801;48.876;10.184;2023-07-29T04:23:55;2.53;;;1.80;;
7519;SDS011;3801;48.876;10.184;2023-07-29T04:29:00;2.17;;;1.97;;
7519;SDS011;3801;48.876;10.184;2023-07-29T04:34:06;2.43;;;1.70;;
7519;SDS011;3801;48.876;10.184;2023-07-29T04:39:10;2.70;;;1.80;;
7519;SDS011;3801;48.876;10.184;2023-07-29T04:44:15;3.07;;;1.53;;
7519;SDS011;3801;48.876;10.184;2023-07-29T04:49:19;2.03;;;1.63;;
7519;SDS011;3801;48.876;10.184;2023-07-29T04:54:24;2.60;;;1.80;;
7519;SDS011;3801;48.876;10.184;2023-07-29T04:59:30;3.93;;;1.87;;
7519;SDS011;3801;48.876;10.184;2023-07-29T05:04:34;2.53;;;1.67;;
7519;SDS011;3801;48.876;10.184;2023-07-29T05:09:37;2.40;;;2.17;;
7519;SDS011;3801;48.876;10.184;2023-07-29T05:14:43;2.30;;;1.73;;
7519;SDS011;3801;48.876;10.184;2023-07-29T05:19:46;2.00;;;1.57;;
7519;SDS011;3801;48.876;10.184;2023-07-29T05:24:50;2.77;;;2.30;;
7519;SDS011;3801;48.876;10.184;2023-07-29T05:29:58;3.80;;;2.23;;
7519;SDS011;3801;48.876;10.184;2023-07-29T05:35:02;2.53;;;1.80;;
7519;SDS011;3801;48.876;10.184;2023-07-29T05:40:08;2.90;;;2.20;;
7519;SDS011;3801;48.876;10.184;2023-07-29T05:45:15;4.70;;;2.10;;
7519;SDS011;3801;48.876;10.184;2023-07-29T05:50:20;3.03;;;2.10;;
7519;SDS011;3801;48.876;10.184;2023-07-29T05:55:24;4.37;;;2.10;;
7519;SDS011;3801;48.876;10.184;2023-07-29T06:00:29;3.77;;;2.20;;
7519;SDS011;3801;48.876;10.184;2023-07-29T06:05:34;3.00;;;1.93;;
7519;SDS011;3801;48.876;10.184;2023-07-29T06:10:38;3.00;;;2.30;;
7519;SDS011;3801;48.876;10.184;2023-07-29T06:15:43;4.80;;;2.53;;
7519;SDS011;3801;48.876;10.184;2023-07-29T06:20:48;4.20;;;2.43;;
7519;SDS011;3801;48.876;10.184;2023-07-29T06:25:52;3.33;;;2.27;;
7519;SDS011;3801;48.876;10.184;2023-07-29T06:31:19;4.03;;;1.90;;
7519;SDS011;3801;48.876;10.184;2023-07-29T06:36:23;3.10;;;2.30;;
7519;SDS011;3801;48.876;10.184;2023-07-29T06:41:26;3.03;;;1.87;;
7519;SDS011;3801;48.876;10.184;2023-07-29T06:46:31;4.57;;;2.30;;
7519;SDS011;3801;48.876;10.184;2023-07-29T06:51:36;2.47;;;2.10;;
7519;SDS011;3801;48.876;10.184;2023-07-29T06:56:39;1.83;;;1.73;;
7519;SDS011;3801;48.876;10.184;2023-07-29T07:01:44;2.20;;;2.00;;
7519;SDS011;3801;48.876;10.184;2023-07-29T07:06:48;4.07;;;2.20;;
7519;SDS011;3801;48.876;10.184;2023-07-29T07:11:51;3.27;;;2.33;;
7519;SDS011;3801;48.876;10.184;2023-07-29T07:16:56;3.63;;;1.90;;
7519;SDS011;3801;48.876;10.184;2023-07-29T07:22:00;2.17;;;1.97;;
7519;SDS011;3801;48.876;10.184;2023-07-29T07:27:03;4.07;;;2.13;;
7519;SDS011;3801;48.876;10.184;2023-07-29T07:32:08;2.10;;;1.90;;
7519;SDS011;3801;48.876;10.184;2023-07-29T07:37:12;2.37;;;2.00;;
7519;SDS011;3801;48.876;10.184;2023-07-29T07:42:16;5.37;;;2.33;;
7519;SDS011;3801;48.876;10.184;2023-07-29T07:47:21;6.77;;;3.67;;
7519;SDS011;3801;48.876;10.184;2023-07-29T07:52:24;2.10;;;1.70;;
7519;SDS011;3801;48.876;10.184;2023-07-29T07:57:28;2.20;;;2.00;;
7519;SDS011;3801;48.876;10.184;2023-07-29T08:02:32;2.70;;;2.30;;
7519;SDS011;3801;48.876;10.184;2023-07-29T08:07:36;3.70;;;2.60;;
7519;SDS011;3801;48.876;10.184;2023-07-29T08:12:39;3.43;;;2.87;;
7519;SDS011;3801;48.876;10.184;2023-07-29T08:17:44;2.10;;;1.90;;
7519;SDS011;3801;48.876;10.184;2023-07-29T08:22:48;2.53;;;1.93;;
7519;SDS011;3801;48.876;10.184;2023-07-29T08:27:52;1.97;;;1.50;;
7519;SDS011;3801;48.876;10.184;2023-07-29T08:32:57;2.47;;;1.80;;
7519;SDS011;3801;48.876;10.184;2023-07-29T08:38:01;2.63;;;1.70;;
7519;SDS011;3801;48.876;10.184;2023-07-29T08:43:05;1.50;;;1.40;;
7519;SDS011;3801;48.876;10.184;2023-07-29T08:48:10;1.43;;;1.33;;
7519;SDS011;3801;48.876;10.184;2023-07-29T08:53:13;1.37;;;1.10;;
7519;SDS011;3801;48.876;10.184;2023-07-29T08:58:17;2.37;;;1.20;;
7519;SDS011;3801;48.876;10.184;2023-07-29T09:03:22;2.53;;;1.13;;
7519;SDS011;3801;48.876;10.184;2023-07-29T09:08:25;2.87;;;1.10;;
7519;SDS011;3801;48.876;10.184;2023-07-29T09:13:29;1.50;;;1.00;;
7519;SDS011;3801;48.876;10.184;2023-07-29T09:18:34;1.53;;;1.20;;
7519;SDS011;3801;48.876;10.184;2023-07-29T09:23:40;1.50;;;1.20;;
7519;SDS011;3801;48.876;10.184;2023-07-29T09:28:44;1.13;;;1.05;;
7519;SDS011;3801;48.876;10.184;2023-07-29T09:33:56;1.20;;;1.10;;
7519;SDS011;3801;48.876;10.184;2023-07-29T09:39:00;1.00;;;1.00;;
7519;SDS011;3801;48.876;10.184;2023-07-29T09:44:06;3.85;;;1.13;;
7519;SDS011;3801;48.876;10.184;2023-07-29T09:49:11;1.50;;;1.10;;
7519;SDS011;3801;48.876;10.184;2023-07-29T09:54:14;2.08;;;1.30;;
7519;SDS011;3801;48.876;10.184;2023-07-29T09:59:19;1.48;;;1.30;;
7519;SDS011;3801;48.876;10.184;2023-07-29T10:04:26;1.50;;;1.40;;
7519;SDS011;3801;48.876;10.184;2023-07-29T10:09:31;1.70;;;1.60;;
7519;SDS011;3801;48.876;10.184;2023-07-29T10:14:35;4.28;;;1.42;;
7519;SDS011;3801;48.876;10.184;2023-07-29T10:19:41;2.45;;;1.50;;
7519;SDS011;3801;48.876;10.184;2023-07-29T10:24:47;1.50;;;1.40;;
7519;SDS011;3801;48.876;10.184;2023-07-29T10:29:52;4.20;;;1.70;;
7519;SDS011;3801;48.876;10.184;2023-07-29T10:34:59;2.55;;;1.58;;
7519;SDS011;3801;48.876;10.184;2023-07-29T10:40:06;2.63;;;1.70;;
7519;SDS011;3801;48.876;10.184;2023-07-29T10:45:17;1.98;;;1.63;;
7519;SDS011;3801;48.876;10.184;2023-07-29T10:55:52;1.60;;;1.35;;
7519;SDS011;3801;48.876;10.184;2023-07-29T11:00:56;2.20;;;1.83;;
7519;SDS011;3801;48.876;10.184;2023-07-29T11:05:59;1.75;;;1.65;;
7519;SDS011;3801;48.876;10.184;2023-07-29T11:11:11;2.85;;;1.50;;
7519;SDS011;3801;48.876;10.184;2023-07-29T11:16:16;2.03;;;1.88;;
7519;SDS011;3801;48.876;10.184;2023-07-29T11:21:19;3.75;;;1.70;;
7519;SDS011;3801;48.876;10.184;2023-07-29T11:26:24;16.40;;;2.33;;
7519;SDS011;3801;48.876;10.184;2023-07-29T11:31:38;1.83;;;1.20;;
7519;SDS011;3801;48.876;10.184;2023-07-29T11:36:43;1.73;;;1.00;;
7519;SDS011;3801;48.876;10.184;2023-07-29T11:41:48;1.10;;;0.90;;
7519;SDS011;3801;48.876;10.184;2023-07-29T11:46:51;3.27;;;1.00;;
7519;SDS011;3801;48.876;10.184;2023-07-29T11:51:54;1.77;;;1.20;;
7519;SDS011;3801;48.876;10.184;2023-07-29T11:57:00;1.37;;;1.27;;
7519;SDS011;3801;48.876;10.184;2023-07-29T12:02:05;3.33;;;1.20;;
7519;SDS011;3801;48.876;10.184;2023-07-29T12:07:09;3.40;;;1.20;;
7519;SDS011;3801;48.876;10.184;2023-07-29T12:12:14;1.40;;;1.30;;
7519;SDS011;3801;48.876;10.184;2023-07-29T12:17:18;1.58;;;1.30;;
7519;SDS011;3801;48.876;10.184;2023-07-29T12:22:21;1.52;;;1.40;;
7519;SDS011;3801;48.876;10.184;2023-07-29T12:27:26;3.20;;;1.50;;
7519;SDS011;3801;48.876;10.184;2023-07-29T12:32:30;2.33;;;1.55;;
7519;SDS011;3801;48.876;10.184;2023-07-29T12:37:33;1.70;;;1.60;;
7519;SDS011;3801;48.876;10.184;2023-07-29T12:42:38;1.65;;;1.52;;
7519;SDS011;3801;48.876;10.184;2023-07-29T12:47:42;3.00;;;1.80;;
7519;SDS011;3801;48.876;10.184;2023-07-29T12:52:45;1.73;;;1.63;;
7519;SDS011;3801;48.876;10.184;2023-07-29T12:57:50;4.43;;;1.80;;
7519;SDS011;3801;48.876;10.184;2023-07-29T13:02:53;2.47;;;2.03;;
7519;SDS011;3801;48.876;10.184;2023-07-29T13:07:57;2.53;;;1.83;;
7519;SDS011;3801;48.876;10.184;2023-07-29T13:13:02;1.90;;;1.50;;
7519;SDS011;3801;48.876;10.184;2023-07-29T13:18:05;2.45;;;1.80;;
7519;SDS011;3801;48.876;10.184;2023-07-29T13:23:09;2.20;;;2.00;;
7519;SDS011;3801;48.876;10.184;2023-07-29T13:28:14;2.50;;;2.30;;
7519;SDS011;3801;48.876;10.184;2023-07-29T13:33:17;2.60;;;2.40;;
7519;SDS011;3801;48.876;10.184;2023-07-29T13:38:20;3.65;;;1.92;;
7519;SDS011;3801;48.876;10.184;2023-07-29T13:43:25;2.45;;;2.25;;
7519;SDS011;3801;48.876;10.184;2023-07-29T13:48:29;3.70;;;2.22;;
7519;SDS011;3801;48.876;10.184;2023-07-29T13:53:32;2.20;;;2.00;;
7519;SDS011;3801;48.876;10.184;2023-07-29T13:58:37;1.95;;;1.80;;
7519;SDS011;3801;48.876;10.184;2023-07-29T14:03:40;2.08;;;1.90;;
7519;SDS011;3801;48.876;10.184;2023-07-29T14:08:43;2.20;;;2.00;;
7519;SDS011;3801;48.876;10.184;2023-07-29T14:13:48;2.28;;;2.08;;
7519;SDS011;3801;48.876;10.184;2023-07-29T14:18:52;2.35;;;2.00;;
7519;SDS011;3801;48.876;10.184;2023-07-29T14:23:55;5.55;;;2.65;;
7519;SDS011;3801;48.876;10.184;2023-07-29T14:29:00;3.40;;;2.20;;
7519;SDS011;3801;48.876;10.184;2023-07-29T14:34:03;3.33;;;2.38;;
7519;SDS011;3801;48.876;10.184;2023-07-29T14:39:06;3.15;;;2.20;;
7519;SDS011;3801;48.876;10.184;2023-07-29T14:44:11;4.47;;;2.33;;
7519;SDS011;3801;48.876;10.184;2023-07-29T14:49:15;2.47;;;2.10;;
7519;SDS011;3801;48.876;10.184;2023-07-29T14:54:18;2.88;;;2.20;;
7519;SDS011;3801;48.876;10.184;2023-07-29T14:59:23;2.13;;;1.95;;
7519;SDS011;3801;48.876;10.184;2023-07-29T15:04:26;2.55;;;2.33;;
7519;SDS011;3801;48.876;10.184;2023-07-29T15:09:30;3.30;;;2.28;;
7519;SDS011;3801;48.876;10.184;2023-07-29T15:14:34;2.47;;;2.15;;
7519;SDS011;3801;48.876;10.184;2023-07-29T15:19:38;2.20;;;2.00;;
7519;SDS011;3801;48.876;10.184;2023-07-29T15:24:41;2.22;;;2.03;;
7519;SDS011;3801;48.876;10.184;2023-07-29T15:29:47;2.08;;;1.88;;
7519;SDS011;3801;48.876;10.184;2023-07-29T15:34:50;1.80;;;1.70;;
7519;SDS011;3801;48.876;10.184;2023-07-29T15:39:54;2.60;;;2.22;;
7519;SDS011;3801;48.876;10.184;2023-07-29T15:44:59;2.38;;;1.98;;
7519;SDS011;3801;48.876;10.184;2023-07-29T15:50:02;3.50;;;2.13;;
7519;SDS011;3801;48.876;10.184;2023-07-29T15:55:06;2.30;;;2.10;;
7519;SDS011;3801;48.876;10.184;2023-07-29T16:00:11;4.43;;;2.00;;
7519;SDS011;3801;48.876;10.184;2023-07-29T16:05:15;3.25;;;1.98;;
7519;SDS011;3801;48.876;10.184;2023-07-29T16:10:19;2.97;;;2.00;;
7519;SDS011;3801;48.876;10.184;2023-07-29T16:15:24;3.03;;;2.20;;
7519;SDS011;3801;48.876;10.184;2023-07-29T16:20:27;3.95;;;2.03;;
7519;SDS011;3801;48.876;10.184;2023-07-29T16:25:30;2.53;;;2.13;;
7519;SDS011;3801;48.876;10.184;2023-07-29T16:30:35;2.38;;;2.17;;
7519;SDS011;3801;48.876;10.184;2023-07-29T16:35:39;2.67;;;2.20;;
7519;SDS011;3801;48.876;10.184;2023-07-29T16:40:42;4.50;;;2.42;;
7519;SDS011;3801;48.876;10.184;2023-07-29T16:46:07;3.60;;;2.22;;
7519;SDS011;3801;48.876;10.184;2023-07-29T16:51:10;2.30;;;2.00;;
7519;SDS011;3801;48.876;10.184;2023-07-29T16:56:14;2.58;;;2.38;;
7519;SDS011;3801;48.876;10.184;2023-07-29T17:01:18;3.38;;;2.25;;
7519;SDS011;3801;48.876;10.184;2023-07-29T17:06:22;2.72;;;2.22;;
7519;SDS011;3801;48.876;10.184;2023-07-29T17:11:26;3.60;;;2.28;;
7519;SDS011;3801;48.876;10.184;2023-07-29T17:16:30;3.85;;;2.60;;
7519;SDS011;3801;48.876;10.184;2023-07-29T17:21:34;2.30;;;2.10;;
7519;SDS011;3801;48.876;10.184;2023-07-29T17:26:37;2.70;;;2.50;;
7519;SDS011;3801;48.876;10.184;2023-07-29T17:31:42;2.60;;;2.15;;
7519;SDS011;3801;48.876;10.184;2023-07-29T17:36:47;4.50;;;2.35;;
7519;SDS011;3801;48.876;10.184;2023-07-29T17:41:50;2.30;;;2.10;;
7519;SDS011;3801;48.876;10.184;2023-07-29T17:46:55;2.63;;;2.42;;
7519;SDS011;3801;48.876;10.184;2023-07-29T17:51:58;2.42;;;2.22;;
7519;SDS011;3801;48.876;10.184;2023-07-29T17:57:02;3.65;;;2.33;;
7519;SDS011;3801;48.876;10.184;2023-07-29T18:02:06;2.67;;;2.47;;
7519;SDS011;3801;48.876;10.184;2023-07-29T18:07:10;3.13;;;2.25;;
7519;SDS011;3801;48.876;10.184;2023-07-29T18:12:13;2.50;;;2.17;;
7519;SDS011;3801;48.876;10.184;2023-07-29T18:17:19;2.20;;;2.00;;
7519;SDS011;3801;48.876;10.184;2023-07-29T18:22:22;2.08;;;1.88;;
7519;SDS011;3801;48.876;10.184;2023-07-29T18:27:26;3.75;;;2.40;;
7519;SDS011;3801;48.876;10.184;2023-07-29T18:32:31;3.75;;;2.60;;
7519;SDS011;3801;48.876;10.184;2023-07-29T18:37:34;2.53;;;1.20;;
7519;SDS011;3801;48.876;10.184;2023-07-29T18:42:37;1.20;;;0.70;;
7519;SDS011;3801;48.876;10.184;2023-07-29T18:47:43;3.57;;;0.80;;
7519;SDS011;3801;48.876;10.184;2023-07-29T18:52:46;4.37;;;1.60;;
7519;SDS011;3801;48.876;10.184;2023-07-29T18:57:50;1.93;;;1.30;;
7519;SDS011;3801;48.876;10.184;2023-07-29T19:02:55;2.33;;;1.70;;
7519;SDS011;3801;48.876;10.184;2023-07-29T19:07:58;2.90;;;2.43;;
7519;SDS011;3801;48.876;10.184;2023-07-29T19:13:02;3.67;;;2.20;;
7519;SDS011;3801;48.876;10.184;2023-07-29T19:18:07;11.67;;;2.60;;
7519;SDS011;3801;48.876;10.184;2023-07-29T19:23:10;5.37;;;2.73;;
7519;SDS011;3801;48.876;10.184;2023-07-29T19:28:14;4.77;;;3.27;;
7519;SDS011;3801;48.876;10.184;2023-07-29T19:33:19;3.87;;;2.60;;
7519;SDS011;3801;48.876;10.184;2023-07-29T19:38:22;3.47;;;2.47;;
7519;SDS011;3801;48.876;10.184;2023-07-29T19:43:26;3.13;;;2.50;;
7519;SDS011;3801;48.876;10.184;2023-07-29T19:48:34;3.83;;;2.60;;
7519;SDS011;3801;48.876;10.184;2023-07-29T19:53:39;2.60;;;2.40;;
7519;SDS011;3801;48.876;10.184;2023-07-29T19:58:44;2.50;;;2.30;;
7519;SDS011;3801;48.876;10.184;2023-07-29T20:03:49;3.33;;;2.33;;
7519;SDS011;3801;48.876;10.184;2023-07-29T20:08:54;2.97;;;2.50;;
7519;SDS011;3801;48.876;10.184;2023-07-29T20:13:58;4.37;;;2.67;;
7519;SDS011;3801;48.876;10.184;2023-07-29T20:19:03;2.60;;;2.30;;
7519;SDS011;3801;48.876;10.184;2023-07-29T20:24:09;3.63;;;2.87;;
7519;SDS011;3801;48.876;10.184;2023-07-29T20:29:12;3.20;;;2.80;;
7519;SDS011;3801;48.876;10.184;2023-07-29T20:34:19;3.97;;;2.63;;
7519;SDS011;3801;48.876;10.184;2023-07-29T20:39:23;3.87;;;3.10;;
7519;SDS011;3801;48.876;10.184;2023-07-29T20:50:19;3.47;;;3.17;;
7519;SDS011;3801;48.876;10.184;2023-07-29T20:55:32;3.43;;;2.80;;
7519;SDS011;3801;48.876;10.184;2023-07-29T21:00:36;3.40;;;3.10;;
7519;SDS011;3801;48.876;10.184;2023-07-29T21:05:41;3.00;;;2.70;;
7519;SDS011;3801;48.876;10.184;2023-07-29T21:10:53;3.87;;;2.67;;
7519;SDS011;3801;48.876;10.184;2023-07-29T21:15:57;6.00;;;3.00;;
7519;SDS011;3801;48.876;10.184;2023-07-29T21:21:02;3.27;;;2.90;;
7519;SDS011;3801;48.876;10.184;2023-07-29T21:26:06;3.13;;;2.67;;
7519;SDS011;3801;48.876;10.184;2023-07-29T21:31:09;3.60;;;3.07;;
7519;SDS011;3801;48.876;10.184;2023-07-29T21:36:18;4.57;;;2.63;;
7519;SDS011;3801;48.876;10.184;2023-07-29T21:41:21;3.83;;;3.30;;
7519;SDS011;3801;48.876;10.184;2023-07-29T21:46:27;3.93;;;3.43;;
7519;SDS011;3801;48.876;10.184;2023-07-29T21:51:33;4.70;;;3.20;;
7519;SDS011;3801;48.876;10.184;2023-07-29T21:56:37;3.83;;;3.37;;
7519;SDS011;3801;48.876;10.184;2023-07-29T22:01:40;3.97;;;3.40;;
7519;SDS011;3801;48.876;10.184;2023-07-29T22:06:45;4.07;;;3.53;;
7519;SDS011;3801;48.876;10.184;2023-07-29T22:11:49;3.70;;;2.97;;
7519;SDS011;3801;48.876;10.184;2023-07-29T22:16:53;5.30;;;3.70;;
7519;SDS011;3801;48.876;10.184;2023-07-29T22:21:58;4.77;;;3.50;;
7519;SDS011;3801;48.876;10.184;2023-07-29T22:27:01;3.33;;;3.03;;
7519;SDS011;3801;48.876;10.184;2023-07-29T22:32:06;3.87;;;3.30;;
7519;SDS011;3801;48.876;10.184;2023-07-29T22:37:12;3.77;;;3.40;;
7519;SDS011;3801;48.876;10.184;2023-07-29T22:42:15;3.80;;;3.37;;
7519;SDS011;3801;48.876;10.184;2023-07-29T22:47:19;3.53;;;3.10;;
7519;SDS011;3801;48.876;10.184;2023-07-29T22:52:24;4.83;;;3.40;;
7519;SDS011;3801;48.876;10.184;2023-07-29T22:57:28;8.20;;;4.03;;
7519;SDS011;3801;48.876;10.184;2023-07-29T23:02:32;4.93;;;3.67;;
7519;SDS011;3801;48.876;10.184;2023-07-29T23:07:37;5.00;;;4.10;;
7519;SDS011;3801;48.876;10.184;2023-07-29T23:12:53;6.50;;;3.80;;
7519;SDS011;3801;48.876;10.184;2023-07-29T23:17:56;4.60;;;3.80;;
7519;SDS011;3801;48.876;10.184;2023-07-29T23:23:04;4.73;;;3.97;;
7519;SDS011;3801;48.876;10.184;2023-07-29T23:28:08;5.43;;;4.27;;
7519;SDS011;3801;48.876;10.184;2023-07-29T23:33:12;4.83;;;4.00;;
7519;SDS011;3801;48.876;10.184;2023-07-29T23:38:17;5.27;;;4.30;;
7519;SDS011;3801;48.876;10.184;2023-07-29T23:43:23;5.97;;;3.77;;
7519;SDS011;3801;48.876;10.184;2023-07-29T23:48:27;7.73;;;4.23;;
7519;SDS011;3801;48.876;10.184;2023-07-29T23:53:32;7.20;;;5.00;;
7519;SDS011;3801;48.876;10.184;2023-07-29T23:58:37;4.83;;;4.33;;
